createdAt,value
2018-10-17T00:00:33.903Z,22.60
2018-10-17T00:03:03.783Z,23.00
2018-10-17T00:05:32.429Z,23.60
2018-10-17T00:08:01.079Z,21.67
2018-10-17T00:10:29.818Z,21.03
2018-10-17T00:12:58.696Z,21.23
2018-10-17T00:15:27.566Z,20.50
2018-10-17T00:17:56.227Z,20.83
2018-10-17T00:20:24.988Z,22.53
2018-10-17T00:22:54.001Z,21.60
2018-10-17T00:25:22.926Z,23.50
2018-10-17T00:27:51.805Z,21.07
2018-10-17T00:30:20.834Z,22.67
2018-10-17T00:32:49.572Z,22.47
2018-10-17T00:35:18.463Z,22.07
2018-10-17T00:37:47.116Z,21.07
2018-10-17T00:40:16.039Z,25.37
2018-10-17T00:42:44.817Z,24.23
2018-10-17T00:45:13.611Z,22.90
2018-10-17T00:47:42.331Z,22.90
2018-10-17T00:50:10.985Z,24.33
2018-10-17T00:52:39.645Z,27.07
2018-10-17T00:55:08.382Z,24.77
2018-10-17T00:57:37.169Z,25.10
2018-10-17T01:00:06.582Z,23.77
2018-10-17T01:02:35.246Z,25.30
2018-10-17T01:05:04.172Z,27.43
2018-10-17T01:07:32.822Z,26.13
2018-10-17T01:10:01.495Z,25.63
2018-10-17T01:12:30.136Z,24.20
2018-10-17T01:14:58.874Z,25.10
2018-10-17T01:17:27.550Z,26.03
2018-10-17T01:19:56.170Z,25.30
2018-10-17T01:22:24.897Z,24.67
2018-10-17T01:24:53.575Z,25.83
2018-10-17T01:27:22.287Z,26.07
2018-10-17T01:29:51.121Z,27.10
2018-10-17T01:32:20.109Z,25.43
2018-10-17T01:34:48.875Z,25.73
2018-10-17T01:37:17.584Z,25.90
2018-10-17T01:39:46.441Z,25.37
2018-10-17T01:42:15.433Z,26.20
2018-10-17T01:44:44.241Z,26.13
2018-10-17T01:47:13.146Z,27.47
2018-10-17T01:49:41.727Z,26.67
2018-10-17T01:52:10.514Z,25.73
2018-10-17T01:54:39.217Z,26.43
2018-10-17T01:57:08.251Z,25.83
2018-10-17T01:59:37.157Z,23.87
2018-10-17T02:02:05.876Z,24.10
2018-10-17T02:04:34.552Z,25.47
2018-10-17T02:07:03.458Z,24.37
2018-10-17T02:09:32.343Z,26.53
2018-10-17T02:12:01.094Z,25.57
2018-10-17T02:14:29.752Z,25.97
2018-10-17T02:16:58.500Z,26.30
2018-10-17T02:19:27.154Z,26.53
2018-10-17T02:21:55.800Z,27.80
2018-10-17T02:24:24.672Z,27.47
2018-10-17T02:26:53.530Z,27.87
2018-10-17T02:29:22.198Z,26.97
2018-10-17T02:31:50.851Z,29.67
2018-10-17T02:34:19.507Z,27.27
2018-10-17T02:36:48.649Z,28.80
2018-10-17T02:39:17.675Z,28.63
2018-10-17T02:41:46.323Z,29.07
2018-10-17T02:44:15.070Z,29.57
2018-10-17T02:46:43.944Z,27.73
2018-10-17T02:49:12.646Z,27.33
2018-10-17T02:51:41.725Z,27.77
2018-10-17T02:54:10.405Z,28.77
2018-10-17T02:56:39.076Z,27.90
2018-10-17T02:59:08.023Z,27.37
2018-10-17T03:01:36.743Z,28.50
2018-10-17T03:04:05.701Z,28.50
2018-10-17T03:06:34.365Z,30.80
2018-10-17T03:09:03.097Z,31.03
2018-10-17T03:11:31.771Z,33.07
2018-10-17T03:14:00.561Z,30.87
2018-10-17T03:16:29.249Z,29.40
2018-10-17T03:18:57.997Z,29.23
2018-10-17T03:21:26.889Z,28.83
2018-10-17T03:23:55.874Z,28.07
2018-10-17T03:26:24.574Z,28.17
2018-10-17T03:28:53.300Z,27.50
2018-10-17T03:31:22.139Z,27.47
2018-10-17T03:33:50.996Z,26.30
2018-10-17T03:36:19.671Z,27.33
2018-10-17T03:38:48.620Z,27.00
2018-10-17T03:41:17.344Z,27.43
2018-10-17T03:43:46.037Z,26.87
2018-10-17T03:46:15.117Z,26.73
2018-10-17T03:48:43.844Z,27.10
2018-10-17T03:51:12.605Z,26.30
2018-10-17T03:53:41.343Z,25.83
2018-10-17T03:56:10.093Z,24.63
2018-10-17T03:58:38.730Z,26.10
2018-10-17T04:01:07.538Z,25.90
2018-10-17T04:03:36.518Z,25.57
2018-10-17T04:06:05.526Z,25.87
2018-10-17T04:08:34.369Z,26.40
2018-10-17T04:11:03.267Z,27.30
2018-10-17T04:13:32.018Z,25.83
2018-10-17T04:16:00.961Z,25.63
2018-10-17T04:18:29.819Z,26.10
2018-10-17T04:20:58.500Z,25.63
2018-10-17T04:23:27.372Z,24.80
2018-10-17T04:25:56.110Z,25.77
2018-10-17T04:28:24.994Z,25.23
2018-10-17T04:30:53.677Z,25.50
2018-10-17T04:33:22.363Z,24.30
2018-10-17T04:35:51.105Z,25.70
2018-10-17T04:38:19.819Z,24.70
2018-10-17T04:40:48.469Z,24.83
2018-10-17T04:43:17.248Z,24.80
2018-10-17T04:45:45.916Z,25.50
2018-10-17T04:48:14.618Z,25.77
2018-10-17T04:50:43.392Z,25.47
2018-10-17T04:53:12.133Z,23.63
2018-10-17T04:55:41.052Z,24.93
2018-10-17T04:58:09.724Z,25.23
2018-10-17T05:00:38.561Z,25.53
2018-10-17T05:03:07.291Z,25.67
2018-10-17T05:05:36.115Z,26.47
2018-10-17T05:08:05.090Z,24.93
2018-10-17T05:10:33.824Z,26.67
2018-10-17T05:13:02.690Z,25.70
2018-10-17T05:15:31.358Z,24.83
2018-10-17T05:18:00.222Z,24.47
2018-10-17T05:20:28.946Z,23.50
2018-10-17T05:22:57.616Z,24.50
2018-10-17T05:25:26.329Z,24.40
2018-10-17T05:27:54.975Z,24.83
2018-10-17T05:30:23.649Z,24.90
2018-10-17T05:32:52.331Z,23.13
2018-10-17T05:35:21.190Z,25.40
2018-10-17T05:37:49.966Z,23.33
2018-10-17T05:40:18.507Z,24.00
2018-10-17T05:42:47.260Z,25.20
2018-10-17T05:45:16.047Z,24.57
2018-10-17T05:47:44.726Z,25.87
2018-10-17T05:50:13.573Z,25.07
2018-10-17T05:52:42.232Z,24.60
2018-10-17T05:55:10.937Z,24.33
2018-10-17T05:57:39.679Z,24.33
2018-10-17T06:00:09.242Z,24.60
2018-10-17T06:02:38.696Z,23.47
2018-10-17T06:05:08.791Z,23.17
2018-10-17T06:07:37.665Z,23.37
2018-10-17T06:10:08.009Z,23.93
2018-10-17T06:12:36.660Z,23.17
2018-10-17T06:15:06.351Z,23.63
2018-10-17T06:17:35.466Z,23.17
2018-10-17T06:20:04.805Z,24.70
2018-10-17T06:22:33.520Z,23.27
2018-10-17T06:25:02.360Z,22.03
2018-10-17T06:27:31.056Z,22.63
2018-10-17T06:30:00.004Z,21.97
2018-10-17T06:32:28.903Z,22.30
2018-10-17T06:34:57.750Z,22.97
2018-10-17T06:37:26.459Z,23.43
2018-10-17T06:39:55.173Z,27.63
2018-10-17T06:42:23.933Z,27.63
2018-10-17T06:44:52.653Z,25.63
2018-10-17T06:47:21.494Z,26.00
2018-10-17T06:49:50.159Z,23.47
2018-10-17T06:52:19.002Z,22.30
2018-10-17T06:54:47.711Z,23.33
2018-10-17T06:57:16.418Z,23.77
2018-10-17T06:59:45.892Z,22.87
2018-10-17T07:02:14.703Z,23.00
2018-10-17T07:04:43.374Z,22.90
2018-10-17T07:07:12.117Z,22.17
2018-10-17T07:09:40.806Z,22.90
2018-10-17T07:12:09.453Z,26.50
2018-10-17T07:14:38.140Z,23.70
2018-10-17T07:17:06.899Z,23.00
2018-10-17T07:19:35.735Z,22.63
2018-10-17T07:22:04.732Z,24.17
2018-10-17T07:24:33.555Z,23.03
2018-10-17T07:27:02.425Z,22.63
2018-10-17T07:29:31.278Z,21.73
2018-10-17T07:31:59.955Z,22.47
2018-10-17T07:34:28.655Z,21.93
2018-10-17T07:36:57.511Z,21.63
2018-10-17T07:39:26.242Z,22.20
2018-10-17T07:41:54.913Z,22.10
2018-10-17T07:44:23.626Z,22.00
2018-10-17T07:46:52.299Z,21.93
2018-10-17T07:49:21.392Z,22.57
2018-10-17T07:51:50.208Z,22.23
2018-10-17T07:54:18.948Z,22.67
2018-10-17T07:56:48.014Z,22.37
2018-10-17T07:59:16.766Z,25.47
2018-10-17T08:01:45.513Z,32.83
2018-10-17T08:04:14.320Z,37.70
2018-10-17T08:06:43.063Z,43.63
2018-10-17T08:09:12.514Z,33.30
2018-10-17T08:11:41.831Z,47.77
2018-10-17T08:14:10.693Z,33.97
2018-10-17T08:16:39.295Z,40.03
2018-10-17T08:19:08.297Z,36.33
2018-10-17T08:21:37.003Z,24.33
2018-10-17T08:24:05.874Z,25.47
2018-10-17T08:26:34.521Z,24.67
2018-10-17T08:29:03.231Z,23.83
2018-10-17T08:31:31.906Z,24.47
2018-10-17T08:34:01.061Z,24.73
2018-10-17T08:36:30.315Z,23.43
2018-10-17T08:38:58.656Z,22.73
2018-10-17T08:41:27.415Z,22.00
2018-10-17T08:43:56.299Z,21.60
2018-10-17T08:46:24.946Z,20.97
2018-10-17T08:48:53.978Z,20.57
2018-10-17T08:51:22.660Z,20.87
2018-10-17T08:53:51.356Z,20.47
2018-10-17T08:56:20.023Z,20.23
2018-10-17T08:58:48.711Z,19.80
2018-10-17T09:01:17.484Z,19.33
2018-10-17T09:03:46.177Z,17.73
2018-10-17T09:06:14.911Z,18.13
2018-10-17T09:08:43.555Z,17.53
2018-10-17T09:11:12.251Z,17.33
2018-10-17T09:13:41.203Z,18.37
2018-10-17T09:16:09.965Z,18.30
2018-10-17T09:18:38.554Z,18.30
2018-10-17T09:21:07.695Z,17.30
2018-10-17T09:23:35.882Z,17.47
2018-10-17T09:26:04.655Z,17.77
2018-10-17T09:28:33.422Z,19.83
2018-10-17T09:31:02.160Z,17.70
2018-10-17T09:33:30.907Z,17.40
2018-10-17T09:35:59.780Z,17.53
2018-10-17T09:38:28.485Z,18.83
2018-10-17T09:40:57.146Z,28.13
2018-10-17T09:43:25.836Z,17.97
2018-10-17T09:45:54.579Z,18.17
2018-10-17T09:48:23.498Z,17.87
2018-10-17T09:50:52.268Z,24.70
2018-10-17T09:53:21.144Z,18.60
2018-10-17T09:55:49.781Z,20.40
2018-10-17T09:58:19.225Z,19.13
2018-10-17T10:00:53.209Z,23.27
2018-10-17T10:03:22.841Z,17.73
2018-10-17T10:05:51.530Z,18.80
2018-10-17T10:08:20.273Z,17.73
2018-10-17T10:10:49.230Z,17.00
2018-10-17T10:13:17.967Z,17.47
2018-10-17T10:15:46.757Z,18.00
2018-10-17T10:18:15.564Z,17.57
2018-10-17T10:20:44.245Z,18.47
2018-10-17T10:23:13.072Z,18.53
2018-10-17T10:25:41.664Z,18.20
2018-10-17T10:28:10.407Z,17.73
2018-10-17T10:30:39.040Z,19.50
2018-10-17T10:33:07.710Z,18.60
2018-10-17T10:35:36.468Z,18.77
2018-10-17T10:38:05.756Z,19.17
2018-10-17T10:40:34.808Z,20.03
2018-10-17T10:43:03.806Z,19.20
2018-10-17T10:45:32.747Z,19.70
2018-10-17T10:48:01.508Z,19.53
2018-10-17T10:50:30.167Z,20.57
2018-10-17T10:52:58.959Z,21.03
2018-10-17T10:55:27.772Z,20.70
2018-10-17T10:57:56.818Z,20.10
2018-10-17T11:00:25.466Z,19.83
2018-10-17T11:02:54.252Z,21.27
2018-10-17T11:05:23.076Z,21.00
2018-10-17T11:07:51.692Z,20.53
2018-10-17T11:10:20.387Z,20.37
2018-10-17T11:12:49.196Z,20.83
2018-10-17T11:15:18.090Z,21.83
2018-10-17T11:17:46.845Z,21.80
2018-10-17T11:20:15.521Z,21.23
2018-10-17T11:22:44.569Z,21.23
2018-10-17T11:25:13.424Z,22.00
2018-10-17T11:27:42.281Z,21.77
2018-10-17T11:30:11.696Z,21.47
2018-10-17T11:32:40.590Z,20.93
2018-10-17T11:35:10.508Z,21.53
2018-10-17T11:37:39.324Z,21.43
2018-10-17T11:40:08.333Z,20.07
2018-10-17T11:42:37.042Z,20.73
2018-10-17T11:45:06.300Z,21.13
2018-10-17T11:47:35.279Z,20.43
2018-10-17T11:50:04.867Z,18.73
2018-10-17T11:52:33.521Z,19.03
2018-10-17T11:55:02.220Z,20.30
2018-10-17T11:57:31.051Z,17.93
2018-10-17T11:59:59.914Z,19.83
2018-10-17T12:02:28.973Z,19.50
2018-10-17T12:04:58.097Z,20.33
2018-10-17T12:07:26.567Z,20.03
2018-10-17T12:09:55.467Z,20.57
2018-10-17T12:12:24.760Z,19.43
2018-10-17T12:14:53.785Z,19.87
2018-10-17T12:17:22.572Z,20.73
2018-10-17T12:19:51.343Z,20.10
2018-10-17T12:22:20.074Z,21.00
2018-10-17T12:24:48.775Z,21.33
2018-10-17T12:27:17.940Z,22.00
2018-10-17T12:29:46.557Z,22.27
2018-10-17T12:32:15.256Z,26.13
2018-10-17T12:34:43.966Z,22.47
2018-10-17T12:37:12.834Z,23.37
2018-10-17T12:39:41.755Z,24.53
2018-10-17T12:42:10.528Z,24.90
2018-10-17T12:44:39.217Z,25.70
2018-10-17T12:47:08.069Z,25.03
2018-10-17T12:49:36.711Z,26.53
2018-10-17T12:52:05.757Z,28.20
2018-10-17T12:54:34.411Z,28.07
2018-10-17T12:57:03.281Z,27.03
2018-10-17T12:59:31.971Z,28.20
2018-10-17T13:02:00.814Z,28.50
2018-10-17T13:04:30.163Z,27.93
2018-10-17T13:06:59.141Z,29.20
2018-10-17T13:09:28.213Z,30.50
2018-10-17T13:11:56.981Z,29.43
2018-10-17T13:14:25.826Z,30.07
2018-10-17T13:16:54.887Z,28.90
2018-10-17T13:19:24.242Z,28.93
2018-10-17T13:21:52.957Z,29.67
2018-10-17T13:24:21.842Z,30.70
2018-10-17T13:26:50.716Z,30.90
2018-10-17T13:29:19.427Z,29.83
2018-10-17T13:31:48.230Z,30.03
2018-10-17T13:34:17.040Z,29.67
2018-10-17T13:36:45.816Z,29.90
2018-10-17T13:39:15.019Z,30.60
2018-10-17T13:41:43.679Z,30.33
2018-10-17T13:44:12.433Z,32.43
2018-10-17T13:46:41.119Z,31.60
2018-10-17T13:49:09.896Z,31.33
2018-10-17T13:51:38.478Z,32.00
2018-10-17T13:54:07.395Z,32.27
2018-10-17T13:56:36.108Z,31.77
2018-10-17T13:59:04.978Z,31.93
2018-10-17T14:01:33.631Z,33.50
2018-10-17T14:04:02.394Z,34.07
2018-10-17T14:06:31.285Z,34.30
2018-10-17T14:09:00.002Z,33.83
2018-10-17T14:11:28.763Z,35.17
2018-10-17T14:13:57.442Z,34.43
2018-10-17T14:16:26.502Z,36.07
2018-10-17T14:18:55.428Z,36.43
2018-10-17T14:21:24.244Z,36.33
2018-10-17T14:23:52.945Z,40.30
2018-10-17T14:26:21.903Z,41.43
2018-10-17T14:28:50.772Z,43.00
2018-10-17T14:31:19.499Z,41.47
2018-10-17T14:33:48.230Z,45.50
2018-10-17T14:36:16.991Z,42.90
2018-10-17T14:38:45.685Z,43.67
2018-10-17T14:41:14.410Z,44.13
2018-10-17T14:43:43.167Z,44.33
2018-10-17T14:46:11.889Z,44.13
2018-10-17T14:48:40.605Z,44.67
2018-10-17T14:51:09.539Z,44.63
2018-10-17T14:53:38.268Z,45.60
2018-10-17T14:56:07.092Z,45.47
2018-10-17T14:58:35.765Z,46.80
2018-10-17T15:01:04.958Z,47.93
2018-10-17T15:03:34.003Z,48.20
2018-10-17T15:06:02.858Z,46.77
2018-10-17T15:08:31.758Z,46.13
2018-10-17T15:11:00.719Z,45.83
2018-10-17T15:13:29.487Z,45.17
2018-10-17T15:15:58.191Z,46.63
2018-10-17T15:18:26.899Z,47.17
2018-10-17T15:20:55.903Z,46.80
2018-10-17T15:23:24.658Z,46.23
2018-10-17T15:25:53.337Z,47.57
2018-10-17T15:28:22.111Z,47.10
2018-10-17T15:30:50.844Z,46.17
2018-10-17T15:33:19.682Z,47.53
2018-10-17T15:35:48.458Z,47.50
2018-10-17T15:38:17.140Z,48.97
2018-10-17T15:40:45.867Z,46.03
2018-10-17T15:43:14.665Z,47.03
2018-10-17T15:45:43.440Z,47.80
2018-10-17T15:48:12.226Z,48.43
2018-10-17T15:50:41.303Z,48.50
2018-10-17T15:53:10.621Z,47.17
2018-10-17T15:55:39.292Z,46.93
2018-10-17T15:58:08.129Z,48.53
2018-10-17T16:00:37.007Z,48.67
2018-10-17T16:03:06.442Z,48.10
2018-10-17T16:05:35.587Z,49.47
2018-10-17T16:08:04.423Z,48.03
2018-10-17T16:10:33.215Z,56.43
2018-10-17T16:13:01.991Z,48.50
2018-10-17T16:15:30.796Z,48.13
2018-10-17T16:17:59.670Z,50.57
2018-10-17T16:20:28.367Z,46.70
2018-10-17T16:22:57.251Z,43.70
2018-10-17T16:25:25.922Z,42.53
2018-10-17T16:27:54.786Z,44.00
2018-10-17T16:30:23.837Z,41.27
2018-10-17T16:32:52.386Z,39.67
2018-10-17T16:35:21.498Z,40.97
2018-10-17T16:37:50.236Z,38.47
2018-10-17T16:40:18.953Z,40.47
2018-10-17T16:42:48.904Z,37.70
2018-10-17T16:45:17.797Z,39.10
2018-10-17T16:47:46.723Z,53.73
2018-10-17T16:50:15.957Z,42.63
2018-10-17T16:52:44.944Z,42.03
2018-10-17T16:55:14.123Z,39.90
2018-10-17T16:57:43.154Z,38.10
2018-10-17T17:00:12.661Z,40.37
2018-10-17T17:02:41.426Z,35.67
2018-10-17T17:05:12.956Z,39.37
2018-10-17T17:07:42.025Z,36.97
2018-10-17T17:10:15.694Z,33.80
2018-10-17T17:12:46.570Z,33.23
2018-10-17T17:15:17.499Z,31.47
2018-10-17T17:17:46.699Z,29.37
2018-10-17T17:20:15.418Z,27.93
2018-10-17T17:22:44.254Z,28.03
2018-10-17T17:25:13.047Z,30.23
2018-10-17T17:27:41.864Z,26.43
2018-10-17T17:30:15.602Z,26.27
2018-10-17T17:32:44.848Z,26.40
2018-10-17T17:35:13.867Z,22.40
2018-10-17T17:37:42.788Z,26.40
2018-10-17T17:40:13.058Z,20.67
2018-10-17T17:42:42.120Z,18.60
2018-10-17T17:45:11.063Z,17.67
2018-10-17T17:47:39.967Z,15.33
2018-10-17T17:50:09.443Z,15.67
2018-10-17T17:52:38.127Z,14.57
2018-10-17T17:55:08.447Z,13.17
2018-10-17T17:57:37.460Z,13.50
2018-10-17T18:00:06.945Z,14.63
2018-10-17T18:02:35.659Z,12.83
2018-10-17T18:05:04.556Z,13.00
2018-10-17T18:07:33.188Z,12.47
2018-10-17T18:10:01.928Z,13.63
2018-10-17T18:12:30.584Z,13.63
2018-10-17T18:14:59.568Z,12.63
2018-10-17T18:17:28.594Z,12.93
2018-10-17T18:19:57.776Z,13.07
2018-10-17T18:22:26.885Z,12.80
2018-10-17T18:24:55.593Z,14.70
2018-10-17T18:27:24.388Z,13.03
2018-10-17T18:29:53.103Z,13.90
2018-10-17T18:32:22.091Z,14.30
2018-10-17T18:34:50.978Z,14.60
2018-10-17T18:37:19.945Z,14.00
2018-10-17T18:39:48.633Z,13.83
2018-10-17T18:42:17.459Z,14.40
2018-10-17T18:44:46.309Z,15.37
2018-10-17T18:47:15.047Z,16.40
2018-10-17T18:49:43.821Z,14.77
2018-10-17T18:52:12.540Z,14.43
2018-10-17T18:54:41.322Z,19.63
2018-10-17T18:57:10.053Z,16.53
2018-10-17T18:59:38.828Z,16.60
2018-10-17T19:02:07.634Z,16.30
2018-10-17T19:04:36.362Z,16.20
2018-10-17T19:07:05.583Z,15.30
2018-10-17T19:09:34.255Z,17.00
2018-10-17T19:12:03.937Z,17.30
2018-10-17T19:14:32.742Z,16.53
2018-10-17T19:17:01.517Z,17.07
2018-10-17T19:19:30.228Z,16.37
2018-10-17T19:21:58.986Z,16.37
2018-10-17T19:24:27.708Z,18.80
2018-10-17T19:26:56.968Z,19.43
2018-10-17T19:29:25.762Z,19.10
2018-10-17T19:31:54.419Z,16.20
2018-10-17T19:34:23.260Z,17.17
2018-10-17T19:36:51.961Z,20.50
2018-10-17T19:39:20.797Z,17.23
2018-10-17T19:41:49.539Z,18.60
2018-10-17T19:44:18.212Z,17.53
2018-10-17T19:46:46.907Z,17.17
2018-10-17T19:49:15.643Z,18.87
2018-10-17T19:51:44.377Z,17.87
2018-10-17T19:54:13.025Z,17.17
2018-10-17T19:56:41.808Z,18.37
2018-10-17T19:59:10.699Z,19.87
2018-10-17T20:01:39.356Z,20.57
2018-10-17T20:04:08.070Z,19.33
2018-10-17T20:06:36.968Z,19.33
2018-10-17T20:09:08.625Z,20.87
2018-10-17T20:11:37.240Z,18.97
2018-10-17T20:14:06.672Z,19.00
2018-10-17T20:16:35.384Z,19.67
2018-10-17T20:19:04.156Z,20.00
2018-10-17T20:21:33.069Z,19.13
2018-10-17T20:24:02.066Z,18.87
2018-10-17T20:26:30.774Z,19.73
2018-10-17T20:28:59.514Z,18.50
2018-10-17T20:31:28.239Z,18.57
2018-10-17T20:33:56.987Z,19.47
2018-10-17T20:36:25.698Z,19.67
2018-10-17T20:38:55.036Z,21.10
2018-10-17T20:41:23.766Z,18.07
2018-10-17T20:43:52.451Z,19.47
2018-10-17T20:46:21.511Z,18.47
2018-10-17T20:48:50.212Z,18.53
2018-10-17T20:51:18.898Z,22.00
2018-10-17T20:53:47.625Z,19.47
2018-10-17T20:56:16.420Z,20.87
2018-10-17T20:58:45.054Z,21.10
2018-10-17T21:01:13.988Z,20.03
2018-10-17T21:03:42.830Z,21.63
2018-10-17T21:06:11.586Z,20.73
2018-10-17T21:08:40.275Z,20.33
2018-10-17T21:11:09.102Z,22.40
2018-10-17T21:13:37.797Z,22.20
2018-10-17T21:16:06.570Z,21.47
2018-10-17T21:18:35.769Z,21.50
2018-10-17T21:21:04.513Z,21.97
2018-10-17T21:23:33.330Z,21.97
2018-10-17T21:26:02.060Z,21.00
2018-10-17T21:28:30.721Z,24.87
2018-10-17T21:30:59.484Z,25.57
2018-10-17T21:33:28.145Z,24.37
2018-10-17T21:35:56.905Z,21.13
2018-10-17T21:38:25.595Z,21.00
2018-10-17T21:40:54.305Z,22.03
2018-10-17T21:43:23.034Z,23.27
2018-10-17T21:45:51.826Z,23.33
2018-10-17T21:48:20.494Z,24.63
2018-10-17T21:50:49.162Z,23.50
2018-10-17T21:53:17.834Z,22.73
2018-10-17T21:55:46.530Z,22.67
2018-10-17T21:58:15.220Z,24.23
2018-10-17T22:00:43.968Z,21.60
2018-10-17T22:03:12.680Z,24.37
2018-10-17T22:05:41.394Z,21.87
2018-10-17T22:08:10.226Z,22.53
2018-10-17T22:10:38.838Z,21.83
2018-10-17T22:13:07.594Z,23.77
2018-10-17T22:15:36.259Z,23.23
2018-10-17T22:18:04.927Z,21.10
2018-10-17T22:20:33.626Z,22.57
2018-10-17T22:23:02.407Z,22.07
2018-10-17T22:25:31.129Z,22.23
2018-10-17T22:27:59.829Z,22.80
2018-10-17T22:30:28.543Z,22.47
2018-10-17T22:32:57.491Z,22.97
2018-10-17T22:35:26.281Z,23.40
2018-10-17T22:37:55.161Z,21.83
2018-10-17T22:40:23.828Z,23.10
2018-10-17T22:42:52.593Z,24.90
2018-10-17T22:45:21.405Z,24.37
2018-10-17T22:47:50.145Z,24.23
2018-10-17T22:50:18.836Z,21.33
2018-10-17T22:52:47.471Z,23.67
2018-10-17T22:55:16.219Z,24.40
2018-10-17T22:57:44.884Z,23.27
2018-10-17T23:00:13.570Z,22.20
2018-10-17T23:02:42.293Z,22.90
2018-10-17T23:05:11.025Z,25.73
2018-10-17T23:07:39.737Z,22.57
2018-10-17T23:10:08.497Z,24.40
2018-10-17T23:12:37.179Z,23.50
2018-10-17T23:15:12.329Z,26.43
2018-10-17T23:17:40.997Z,24.73
2018-10-17T23:20:09.995Z,23.70
2018-10-17T23:22:39.489Z,22.63
2018-10-17T23:25:09.413Z,24.13
2018-10-17T23:27:38.104Z,25.13
2018-10-17T23:30:08.190Z,25.60
2018-10-17T23:32:36.908Z,23.83
2018-10-17T23:35:06.071Z,23.90
2018-10-17T23:37:35.175Z,25.90
2018-10-17T23:40:03.914Z,25.47
2018-10-17T23:42:32.673Z,27.17
2018-10-17T23:45:01.378Z,27.73
2018-10-17T23:47:30.101Z,24.83
2018-10-17T23:49:58.796Z,23.63
2018-10-17T23:52:27.511Z,22.87
2018-10-17T23:54:56.215Z,24.33
2018-10-17T23:57:24.938Z,23.80
2018-10-17T23:59:53.604Z,27.80
